Time;durP1;ratioP1;P1;durP2;ratioP2;P2;SDS_P1;SDS_P2;PMS_P1;PMS_P2;Temp;Humidity;BMP_temperature;BMP_pressure;BME280_temperature;BME280_humidity;BME280_pressure;Samples;Min_cycle;Max_cycle;Signal;HPM_P1;HPM_P2
2022/11/01 00:01:26;;;;;;;7.70;2.97;;;;;;;10.20;85.13;95370.06;5053030;28;20203;-77
2022/11/01 00:03:53;;;;;;;5.68;2.78;;;;;;;10.18;85.31;95364.97;5052695;28;20278;-77
2022/11/01 00:06:20;;;;;;;6.15;3.35;;;;;;;10.16;85.42;95369.84;5060436;28;20284;-77
2022/11/01 00:08:48;;;;;;;8.25;3.75;;;;;;;10.16;85.94;95369.03;5057779;28;20262;-77
2022/11/01 00:11:17;;;;;;;6.57;2.55;;;;;;;10.12;86.08;95368.03;5052252;28;20605;-78
2022/11/01 00:13:46;;;;;;;9.20;3.75;;;;;;;10.10;86.39;95370.28;5051900;28;20246;-78
2022/11/01 00:16:12;;;;;;;5.40;3.13;;;;;;;10.14;86.66;95365.84;5052051;28;20203;-78
2022/11/01 00:18:40;;;;;;;6.70;3.15;;;;;;;10.15;86.78;95367.44;5052262;28;20200;-78
2022/11/01 00:21:06;;;;;;;6.35;3.17;;;;;;;10.14;86.86;95368.53;5052598;28;20218;-78
2022/11/01 00:23:33;;;;;;;4.93;2.90;;;;;;;10.20;86.65;95362.75;5069655;28;20669;-78
2022/11/01 00:26:02;;;;;;;4.72;2.88;;;;;;;10.27;86.17;95359.59;5061837;28;20238;-78
2022/11/01 00:28:29;;;;;;;8.05;3.75;;;;;;;10.22;86.28;95373.28;5052646;28;20253;-78
2022/11/01 00:30:57;;;;;;;6.68;2.97;;;;;;;10.20;86.38;95360.03;5052287;28;20246;-78
2022/11/01 00:33:24;;;;;;;7.97;3.10;;;;;;;10.23;86.44;95353.22;5052192;28;20265;-78
2022/11/01 00:35:51;;;;;;;8.98;3.00;;;;;;;10.21;86.15;95358.13;5052258;28;21014;-78
2022/11/01 00:38:18;;;;;;;5.93;3.33;;;;;;;10.21;86.14;95366.25;5052045;28;20249;-78
2022/11/01 00:40:45;;;;;;;10.80;3.85;;;;;;;10.10;86.22;95364.88;5052176;28;20203;-79
2022/11/01 00:43:14;;;;;;;5.63;3.08;;;;;;;9.98;86.58;95352.66;5052176;28;20222;-79
2022/11/01 00:45:43;;;;;;;5.45;2.80;;;;;;;9.98;86.75;95362.66;5052158;28;20228;-78
2022/11/01 00:48:11;;;;;;;2.92;2.13;;;;;;;10.05;87.03;95354.16;5051602;28;20199;-78
2022/11/01 00:50:38;;;;;;;8.77;3.00;;;;;;;10.06;87.15;95353.84;5052153;28;20200;-79
2022/11/01 00:53:05;;;;;;;5.70;3.28;;;;;;;10.05;87.15;95363.06;5051788;28;20779;-77
2022/11/01 00:55:32;;;;;;;6.10;3.80;;;;;;;10.05;86.73;95363.06;5051329;28;20902;-78
2022/11/01 00:57:58;;;;;;;9.10;3.28;;;;;;;9.98;86.94;95358.06;5051678;28;20211;-78
2022/11/01 01:00:26;;;;;;;6.13;3.95;;;;;;;9.88;87.35;95366.41;5051557;28;20204;-78
2022/11/01 01:02:53;;;;;;;8.63;4.13;;;;;;;9.83;87.70;95363.84;5051790;28;20610;-78
2022/11/01 01:05:20;;;;;;;13.13;5.93;;;;;;;9.86;87.97;95365.91;5051770;28;20227;-78
2022/11/01 01:07:47;;;;;;;9.80;5.68;;;;;;;9.88;88.03;95363.72;5051974;28;20258;-77
2022/11/01 01:10:14;;;;;;;9.02;3.30;;;;;;;9.87;86.83;95364.81;5051727;28;20233;-78
2022/11/01 01:12:41;;;;;;;4.65;3.42;;;;;;;9.65;87.66;95364.78;5051934;28;20203;-77
2022/11/01 01:15:09;;;;;;;7.18;3.65;;;;;;;9.59;88.21;95360.56;5051361;28;20203;-78
2022/11/01 01:17:37;;;;;;;9.75;4.20;;;;;;;9.57;88.76;95365.47;5051407;28;20215;-78
2022/11/01 01:20:06;;;;;;;10.60;3.63;;;;;;;9.56;88.80;95361.19;5050951;28;20203;-77
2022/11/01 01:22:33;;;;;;;15.77;3.88;;;;;;;9.58;88.95;95358.94;5052444;28;20214;-78
2022/11/01 01:24:59;;;;;;;5.75;2.70;;;;;;;9.53;89.29;95359.09;5051259;28;20210;-78
2022/11/01 01:27:26;;;;;;;6.32;3.05;;;;;;;9.45;89.72;95360.56;5050666;28;20617;-78
2022/11/01 01:29:53;;;;;;;7.40;3.65;;;;;;;9.56;89.39;95366.59;5050828;28;20275;-78
2022/11/01 01:32:23;;;;;;;6.82;3.00;;;;;;;9.62;88.86;95368.06;5050158;28;20232;-78
2022/11/01 01:34:52;;;;;;;6.40;3.22;;;;;;;9.61;88.14;95361.06;5051182;28;20682;-78
2022/11/01 01:37:19;;;;;;;6.10;2.88;;;;;;;9.53;87.84;95367.19;5050982;28;20203;-78
2022/11/01 01:39:46;;;;;;;4.95;3.50;;;;;;;9.43;87.92;95368.19;5050994;28;20208;-78
2022/11/01 01:42:19;;;;;;;7.05;3.65;;;;;;;9.39;88.23;95366.41;5051243;28;20720;-78
2022/11/01 01:45:31;;;;;;;4.85;2.80;;;;;;;9.42;88.45;95365.81;5050425;28;20223;-78
2022/11/01 01:48:06;;;;;;;5.18;2.55;;;;;;;9.43;87.86;95370.13;5051173;28;20191;-77
2022/11/01 01:50:39;;;;;;;7.00;3.03;;;;;;;9.33;88.35;95375.72;5050794;28;20195;-78
2022/11/01 01:53:09;;;;;;;6.68;3.15;;;;;;;9.43;87.67;95378.22;5050952;28;20655;-78
2022/11/01 01:55:40;;;;;;;7.68;2.78;;;;;;;9.41;88.42;95369.63;5050738;28;20257;-77
2022/11/01 01:58:10;;;;;;;4.97;2.38;;;;;;;9.37;88.50;95368.59;5050644;28;20200;-77
2022/11/01 02:00:37;;;;;;;3.22;2.25;;;;;;;9.26;89.09;95366.13;5051034;28;20253;-77
2022/11/01 02:03:06;;;;;;;6.13;2.85;;;;;;;9.29;89.26;95372.03;5050342;28;20211;-77
2022/11/01 02:05:44;;;;;;;3.40;2.20;;;;;;;9.20;89.52;95375.41;5050763;28;20227;-77
2022/11/01 02:08:12;;;;;;;6.40;2.85;;;;;;;9.24;89.66;95373.72;5050156;28;20188;-77
2022/11/01 02:10:40;;;;;;;3.80;2.45;;;;;;;9.27;90.03;95369.63;5050550;28;20289;-78
2022/11/01 02:13:12;;;;;;;5.18;3.25;;;;;;;9.35;89.48;95373.50;5050361;28;20200;-77
2022/11/01 02:15:47;;;;;;;8.90;2.47;;;;;;;9.38;89.09;95375.63;5050404;28;20195;-77
2022/11/01 02:18:23;;;;;;;5.55;3.03;;;;;;;9.32;89.22;95377.59;5050355;28;20657;-77
2022/11/01 02:21:09;;;;;;;3.42;2.60;;;;;;;9.27;89.45;95375.84;5049831;28;20541;-78
2022/11/01 02:24:19;;;;;;;12.30;5.60;;;;;;;9.28;89.70;95382.03;5050387;28;20192;-77
2022/11/01 02:27:13;;;;;;;4.93;2.58;;;;;;;9.23;89.88;95380.22;5050058;28;20288;-77
2022/11/01 02:30:11;;;;;;;10.10;5.85;;;;;;;9.24;90.28;95376.44;5044789;28;20208;-77
2022/11/01 02:32:57;;;;;;;7.03;4.00;;;;;;;9.19;90.65;95379.22;5050011;28;20297;-78
2022/11/01 02:35:31;;;;;;;4.15;3.13;;;;;;;9.17;90.51;95384.13;5037879;28;20253;-77
2022/11/01 02:38:06;;;;;;;14.43;3.58;;;;;;;9.16;90.59;95382.50;5050154;28;20196;-77
2022/11/01 02:40:40;;;;;;;4.55;2.58;;;;;;;9.14;90.63;95387.44;5049510;28;20237;-78
2022/11/01 02:43:14;;;;;;;3.92;2.83;;;;;;;9.08;90.90;95387.81;5049526;28;20232;-76
2022/11/01 02:45:44;;;;;;;7.05;2.42;;;;;;;9.03;91.32;95390.59;5049289;28;20265;-77
2022/11/01 02:48:13;;;;;;;4.38;2.65;;;;;;;8.99;91.15;95400.44;5049684;28;20635;-78
2022/11/01 02:50:44;;;;;;;4.97;3.22;;;;;;;8.94;91.90;95404.00;5050014;28;20212;-76
2022/11/01 02:53:11;;;;;;;9.95;3.53;;;;;;;8.96;92.39;95401.81;5036929;28;20266;-76
2022/11/01 02:55:38;;;;;;;11.75;6.30;;;;;;;9.04;91.89;95393.00;5049562;28;20203;-78
2022/11/01 02:58:07;;;;;;;10.23;6.25;;;;;;;9.15;91.14;95404.47;5050364;28;20233;-78
2022/11/01 03:00:36;;;;;;;11.75;5.95;;;;;;;9.14;90.29;95398.25;5049259;28;20265;-78
2022/11/01 03:03:17;;;;;;;9.05;5.90;;;;;;;9.13;89.95;95402.06;5049547;28;20286;-77
2022/11/01 03:06:01;;;;;;;10.63;6.43;;;;;;;9.06;89.85;95407.03;5048763;28;20219;-77
2022/11/01 03:08:32;;;;;;;11.80;6.45;;;;;;;8.96;90.01;95399.13;5050384;28;20196;-77
2022/11/01 03:11:06;;;;;;;11.10;6.07;;;;;;;8.93;90.41;95407.81;5049120;28;20651;-78
2022/11/01 03:13:52;;;;;;;12.48;6.55;;;;;;;8.91;90.47;95415.41;5049772;28;20226;-78
2022/11/01 03:16:25;;;;;;;11.25;6.05;;;;;;;8.91;90.41;95415.41;5049398;28;20231;-78
2022/11/01 03:19:04;;;;;;;12.25;6.03;;;;;;;8.91;89.82;95410.00;5050087;28;20238;-78
2022/11/01 03:21:37;;;;;;;10.57;6.07;;;;;;;8.84;90.17;95418.53;5049901;28;20192;-77
2022/11/01 03:24:10;;;;;;;11.57;6.40;;;;;;;8.95;89.65;95416.44;5036535;28;20203;-77
2022/11/01 03:26:38;;;;;;;9.23;5.90;;;;;;;8.87;90.35;95414.44;5049523;28;20219;-77
2022/11/01 03:29:09;;;;;;;6.00;3.17;;;;;;;8.81;90.77;95421.00;5049831;28;20307;-76
2022/11/01 03:31:40;;;;;;;6.85;3.10;;;;;;;8.82;91.11;95417.19;5049623;28;20245;-78
2022/11/01 03:34:13;;;;;;;4.57;2.70;;;;;;;8.80;91.27;95409.41;5049313;28;20334;-78
2022/11/01 03:36:45;;;;;;;4.75;3.08;;;;;;;8.82;91.14;95411.81;5049735;28;20590;-78
2022/11/01 03:39:18;;;;;;;6.38;3.33;;;;;;;8.75;91.13;95408.66;5050002;28;20192;-77
2022/11/01 03:41:49;;;;;;;4.95;2.47;;;;;;;8.72;91.14;95412.00;5054319;28;20509;-79
2022/11/01 03:44:16;;;;;;;4.63;3.03;;;;;;;8.73;91.29;95402.78;5069906;28;20263;-77
2022/11/01 03:46:43;;;;;;;4.72;3.08;;;;;;;8.70;91.03;95408.78;5049930;28;20223;-78
2022/11/01 03:49:16;;;;;;;5.57;3.00;;;;;;;8.69;90.86;95412.56;5049950;28;20628;-78
2022/11/01 03:51:43;;;;;;;4.63;2.50;;;;;;;8.70;90.92;95414.19;5049154;28;20196;-78
2022/11/01 03:54:10;;;;;;;4.53;3.42;;;;;;;8.73;90.61;95405.50;5051716;28;20203;-78
2022/11/01 03:56:38;;;;;;;5.40;2.70;;;;;;;8.59;90.97;95408.16;5053340;28;20206;-77
2022/11/01 03:59:05;;;;;;;4.70;3.05;;;;;;;8.62;91.00;95406.72;5053069;28;20226;-78
2022/11/01 04:01:32;;;;;;;10.27;4.22;;;;;;;8.60;90.74;95408.94;5052878;28;20253;-78
2022/11/01 04:03:59;;;;;;;5.60;3.78;;;;;;;8.61;90.24;95415.97;5052928;28;20199;-78
2022/11/01 04:06:27;;;;;;;6.88;3.65;;;;;;;8.54;89.93;95411.72;5052882;28;20240;-78
2022/11/01 04:08:53;;;;;;;7.78;3.30;;;;;;;8.51;90.12;95420.41;5053449;28;20207;-78
2022/11/01 04:11:20;;;;;;;6.55;3.78;;;;;;;8.46;90.47;95415.13;5052793;28;20222;-78
2022/11/01 04:13:47;;;;;;;9.73;3.58;;;;;;;8.53;90.85;95420.91;5052833;28;20639;-78
2022/11/01 04:21:43;;;;;;;7.38;3.20;;;;;;;8.51;91.78;95411.50;5052719;28;20195;-77
2022/11/01 04:24:10;;;;;;;5.82;4.03;;;;;;;8.71;91.57;95410.38;5052590;28;20306;-77
2022/11/01 04:26:38;;;;;;;8.13;3.55;;;;;;;8.64;91.80;95412.66;5052172;28;20896;-77
2022/11/01 04:29:04;;;;;;;5.95;3.95;;;;;;;8.45;92.65;95408.09;5053004;28;20253;-77
2022/11/01 04:31:34;;;;;;;6.78;3.42;;;;;;;8.43;92.83;95415.69;5051951;28;20245;-78
2022/11/01 04:34:02;;;;;;;5.20;2.83;;;;;;;8.37;92.87;95411.44;5051852;28;20270;-78
2022/11/01 04:36:29;;;;;;;7.25;3.88;;;;;;;8.37;92.77;95419.56;5052034;28;20253;-78
2022/11/01 04:38:58;;;;;;;9.00;3.53;;;;;;;8.35;93.24;95419.03;5052397;28;20261;-79
2022/11/01 04:41:28;;;;;;;6.47;3.55;;;;;;;8.36;93.21;95425.25;5052144;28;20227;-79
2022/11/01 04:43:56;;;;;;;5.68;3.20;;;;;;;8.37;93.02;95427.66;5052436;28;20631;-78
2022/11/01 04:46:23;;;;;;;7.65;3.75;;;;;;;8.34;93.16;95417.44;5052048;28;20227;-79
2022/11/01 04:48:50;;;;;;;10.93;3.45;;;;;;;8.39;93.14;95414.66;5040982;28;20291;-79
2022/11/01 04:51:17;;;;;;;6.60;3.70;;;;;;;8.32;92.98;95424.25;5037444;28;20195;-79
2022/11/01 04:53:44;;;;;;;10.98;4.15;;;;;;;8.34;93.36;95422.84;5052760;28;20199;-79
2022/11/01 04:56:13;;;;;;;9.45;3.60;;;;;;;8.35;93.85;95427.13;5051477;28;20200;-78
2022/11/01 04:58:40;;;;;;;6.95;4.55;;;;;;;8.49;93.26;95422.59;5052605;28;20277;-78
2022/11/01 05:01:08;;;;;;;8.25;3.95;;;;;;;8.43;92.67;95421.09;5052260;28;20535;-78
2022/11/01 05:03:35;;;;;;;8.13;3.58;;;;;;;8.52;92.29;95424.72;5051999;28;20215;-78
2022/11/01 05:06:02;;;;;;;8.65;4.45;;;;;;;8.49;91.88;95424.50;5051105;28;20655;-78
2022/11/01 05:08:28;;;;;;;7.18;5.10;;;;;;;8.52;92.28;95434.72;5051764;28;20614;-78
2022/11/01 05:10:56;;;;;;;11.48;4.97;;;;;;;8.66;91.91;95429.34;5051972;28;20199;-78
2022/11/01 05:13:24;;;;;;;13.43;4.53;;;;;;;8.73;91.29;95430.59;5051697;28;20203;-78
2022/11/01 05:15:51;;;;;;;10.20;4.63;;;;;;;8.76;91.17;95429.97;5051777;28;20207;-79
2022/11/01 05:18:18;;;;;;;7.80;4.55;;;;;;;8.85;91.20;95435.53;5051631;28;20653;-78
2022/11/01 05:20:44;;;;;;;9.00;5.45;;;;;;;8.97;90.92;95435.06;5051803;28;20662;-79
2022/11/01 05:23:11;;;;;;;8.40;4.75;;;;;;;9.39;89.48;95436.72;5051232;28;20200;-78
2022/11/01 05:25:38;;;;;;;12.90;5.03;;;;;;;9.75;87.71;95439.50;5051815;28;20207;-79
2022/11/01 05:28:07;;;;;;;8.27;4.10;;;;;;;9.97;86.76;95448.50;5051313;28;20235;-78
2022/11/01 05:30:36;;;;;;;6.28;3.63;;;;;;;10.32;85.71;95444.25;5047947;28;20206;-79
2022/11/01 05:33:05;;;;;;;17.38;6.32;;;;;;;10.64;82.89;95448.66;5051252;28;20354;-78
2022/11/01 05:35:33;;;;;;;13.18;4.90;;;;;;;10.77;81.73;95443.47;5047139;28;20204;-78
2022/11/01 05:38:01;;;;;;;8.95;4.53;;;;;;;10.75;82.15;95446.50;5045840;28;20241;-78
2022/11/01 05:40:28;;;;;;;7.75;4.18;;;;;;;11.33;81.83;95440.94;5050888;28;20207;-79
2022/11/01 05:42:55;;;;;;;8.10;5.10;;;;;;;12.12;78.87;95444.72;5050946;28;20199;-78
2022/11/01 05:45:21;;;;;;;8.55;4.22;;;;;;;12.82;76.32;95442.53;5051067;28;20196;-79
2022/11/01 05:47:50;;;;;;;8.38;4.70;;;;;;;13.34;73.67;95447.91;5051054;28;20227;-78
2022/11/01 05:50:17;;;;;;;9.73;4.45;;;;;;;14.01;71.46;95440.88;5051164;28;20204;-78
2022/11/01 05:52:47;;;;;;;12.57;5.28;;;;;;;14.43;69.58;95450.75;5050560;28;20545;-78
2022/11/01 05:55:14;;;;;;;12.93;5.97;;;;;;;14.91;67.49;95439.28;5051309;28;20192;-78
2022/11/01 05:57:41;;;;;;;12.35;4.93;;;;;;;15.56;65.57;95437.69;5050465;28;20671;-78
2022/11/01 06:00:09;;;;;;;9.65;5.20;;;;;;;16.03;63.89;95434.50;5050262;28;20203;-77
2022/11/01 06:02:36;;;;;;;7.20;4.75;;;;;;;16.57;62.75;95436.94;5050597;28;20627;-79
2022/11/01 06:05:05;;;;;;;8.18;5.18;;;;;;;16.90;61.97;95440.31;5050678;28;20199;-77
2022/11/01 06:07:32;;;;;;;8.98;4.82;;;;;;;16.95;60.48;95440.06;5050195;28;20710;-78
2022/11/01 06:09:58;;;;;;;11.00;6.03;;;;;;;17.07;61.38;95444.72;5050546;28;20250;-77
2022/11/01 06:12:25;;;;;;;14.07;8.48;;;;;;;17.29;59.61;95440.59;5050434;28;20208;-78
2022/11/01 06:14:52;;;;;;;8.73;5.03;;;;;;;17.57;58.92;95446.84;5050016;28;20204;-78
2022/11/01 06:17:19;;;;;;;10.65;5.90;;;;;;;17.48;58.47;95442.69;5049407;28;20207;-78
2022/11/01 06:19:46;;;;;;;14.30;6.30;;;;;;;17.59;57.17;95439.06;5050288;28;20563;-77
2022/11/01 06:22:14;;;;;;;8.70;5.07;;;;;;;17.55;57.88;95438.16;5056146;28;20248;-76
2022/11/01 06:24:41;;;;;;;10.25;6.60;;;;;;;17.09;58.38;95444.34;5056275;28;20196;-78
2022/11/01 06:27:08;;;;;;;13.32;5.80;;;;;;;16.96;60.15;95444.38;5050144;28;20219;-78
2022/11/01 06:29:34;;;;;;;8.52;5.53;;;;;;;16.71;60.99;95453.81;5050087;28;20200;-78
2022/11/01 06:32:03;;;;;;;13.82;6.82;;;;;;;15.87;61.88;95447.25;5049759;28;20244;-78
2022/11/01 06:34:30;;;;;;;18.75;7.18;;;;;;;15.35;63.74;95460.69;5050207;28;20618;-79
2022/11/01 06:36:58;;;;;;;22.35;12.20;;;;;;;14.78;65.50;95456.72;5050053;28;20214;-79
2022/11/01 06:39:26;;;;;;;14.68;7.32;;;;;;;14.32;66.83;95460.41;5049537;28;20203;-80
2022/11/01 06:41:53;;;;;;;10.85;7.18;;;;;;;14.35;67.95;95465.19;5050257;28;20211;-80
2022/11/01 06:44:21;;;;;;;17.33;9.05;;;;;;;13.96;68.47;95469.09;5050454;28;20204;-80
2022/11/01 06:46:48;;;;;;;17.27;6.75;;;;;;;13.77;69.59;95464.06;5049934;28;20231;-78
2022/11/01 06:49:14;;;;;;;18.10;7.03;;;;;;;13.59;70.39;95467.19;5051447;28;20207;-79
2022/11/01 06:51:41;;;;;;;21.15;11.23;;;;;;;13.51;70.77;95466.91;5062017;28;20206;-78
2022/11/01 06:54:08;;;;;;;12.25;6.82;;;;;;;13.40;71.53;95473.78;5049683;28;20609;-78
2022/11/01 06:56:36;;;;;;;11.85;6.80;;;;;;;13.40;71.50;95473.00;5057793;28;20206;-78
2022/11/01 06:59:03;;;;;;;12.00;6.90;;;;;;;13.36;71.41;95472.06;5054074;28;20203;-77
2022/11/01 07:01:36;;;;;;;22.42;11.52;;;;;;;13.23;71.64;95465.69;5049542;28;20199;-80
2022/11/01 07:04:03;;;;;;;13.18;6.60;;;;;;;13.28;72.07;95460.06;5049464;28;20195;-80
2022/11/01 07:06:30;;;;;;;17.48;7.35;;;;;;;13.21;72.13;95459.78;5049630;28;20597;-78
2022/11/01 07:08:58;;;;;;;12.77;7.00;;;;;;;13.24;72.11;95464.56;5049109;28;20211;-79
2022/11/01 07:11:25;;;;;;;20.25;8.55;;;;;;;13.30;72.28;95457.81;5049126;28;20203;-80
2022/11/01 07:13:54;;;;;;;10.85;6.47;;;;;;;13.32;72.28;95465.66;5048959;28;20195;-79
2022/11/01 07:16:20;;;;;;;21.40;11.55;;;;;;;13.45;71.26;95461.94;5048920;28;20206;-79
2022/11/01 07:18:47;;;;;;;13.38;7.38;;;;;;;13.76;70.66;95464.41;5049482;28;20226;-81
2022/11/01 07:21:14;;;;;;;11.02;6.10;;;;;;;13.85;69.78;95465.16;5060251;28;20202;-80
2022/11/01 07:23:41;;;;;;;12.73;6.95;;;;;;;13.96;69.80;95457.41;5063849;28;20218;-78
2022/11/01 07:26:07;;;;;;;12.85;6.68;;;;;;;14.14;69.09;95465.16;5049456;28;20196;-79
2022/11/01 07:28:34;;;;;;;11.27;6.60;;;;;;;14.34;68.64;95460.91;5052234;28;20223;-81
2022/11/01 07:31:03;;;;;;;11.00;5.93;;;;;;;14.46;68.13;95465.66;5052543;28;20689;-79
2022/11/01 07:33:29;;;;;;;15.20;7.32;;;;;;;14.06;69.59;95466.03;5052682;28;20653;-79
2022/11/01 07:35:56;;;;;;;13.98;7.80;;;;;;;14.27;68.71;95462.53;5053231;28;20199;-80
2022/11/01 07:38:23;;;;;;;13.60;7.13;;;;;;;14.31;68.06;95468.94;5052391;28;20192;-79
2022/11/01 07:40:52;;;;;;;13.48;7.32;;;;;;;14.50;67.81;95461.91;5051897;28;20923;-80
2022/11/01 07:43:19;;;;;;;16.42;7.85;;;;;;;14.30;68.23;95467.31;5052469;28;20204;-78
2022/11/01 07:45:46;;;;;;;18.77;7.43;;;;;;;14.43;68.25;95460.84;5051905;28;20204;-81
2022/11/01 07:48:15;;;;;;;20.05;11.10;;;;;;;14.78;66.70;95461.38;5051847;28;20325;-81
2022/11/01 07:50:43;;;;;;;20.27;11.95;;;;;;;14.65;66.88;95457.00;5052332;28;20204;-82
2022/11/01 07:53:12;;;;;;;24.88;11.70;;;;;;;14.69;67.57;95460.66;5051668;28;20192;-76
2022/11/01 07:55:39;;;;;;;18.27;11.32;;;;;;;15.09;67.06;95456.28;5051638;28;20292;-76
2022/11/01 07:58:06;;;;;;;21.52;12.05;;;;;;;15.10;65.94;95460.63;5051087;28;20191;-77
2022/11/01 08:00:34;;;;;;;19.35;11.10;;;;;;;15.41;65.62;95460.16;5053156;28;20222;-78
2022/11/01 08:03:01;;;;;;;21.10;11.48;;;;;;;15.21;65.81;95458.25;5051109;28;20683;-77
2022/11/01 08:05:30;;;;;;;15.70;8.05;;;;;;;15.27;65.81;95454.19;5051005;28;20294;-80
2022/11/01 08:07:57;;;;;;;14.40;8.07;;;;;;;15.58;64.98;95456.47;5049519;28;20226;-80
2022/11/01 08:10:24;;;;;;;12.18;7.88;;;;;;;15.59;64.88;95447.91;5051292;28;20751;-78
2022/11/01 08:12:51;;;;;;;22.92;7.93;;;;;;;15.46;64.81;95451.72;5051099;28;20187;-77
2022/11/01 08:15:18;;;;;;;17.25;8.27;;;;;;;15.71;64.30;95449.09;5051607;28;20266;-78
2022/11/01 08:17:45;;;;;;;15.52;8.43;;;;;;;15.92;63.88;95449.78;5051413;28;20199;-78
2022/11/01 08:20:12;;;;;;;19.45;7.93;;;;;;;15.87;63.80;95442.59;5051756;28;20204;-79
2022/11/01 08:22:40;;;;;;;17.23;7.45;;;;;;;15.91;63.29;95437.25;5053353;28;20203;-77
2022/11/01 08:25:08;;;;;;;12.40;6.93;;;;;;;15.97;63.00;95436.69;5052289;28;20204;-79
2022/11/01 08:27:35;;;;;;;15.13;7.30;;;;;;;16.28;62.54;95438.81;5052328;28;20631;-77
2022/11/01 08:30:02;;;;;;;22.63;12.00;;;;;;;16.50;62.07;95432.09;5051950;28;20253;-76
2022/11/01 08:32:28;;;;;;;15.32;7.90;;;;;;;16.47;62.44;95438.22;5051910;28;20555;-78
2022/11/01 08:34:55;;;;;;;16.77;7.57;;;;;;;16.24;61.92;95429.72;5051667;28;20705;-80
2022/11/01 08:37:22;;;;;;;13.52;8.40;;;;;;;16.37;61.84;95426.97;5051876;28;20541;-79
2022/11/01 08:39:50;;;;;;;18.25;7.95;;;;;;;16.74;61.40;95431.25;5050906;28;20218;-79
2022/11/01 08:42:17;;;;;;;18.52;7.65;;;;;;;16.72;60.66;95422.56;5051420;28;20203;-78
2022/11/01 08:44:44;;;;;;;12.50;7.28;;;;;;;16.49;60.86;95418.75;5051378;28;20686;-79
2022/11/01 08:47:11;;;;;;;14.20;7.88;;;;;;;16.70;60.40;95422.13;5051367;28;20207;-78
2022/11/01 08:49:37;;;;;;;14.15;7.50;;;;;;;16.92;59.48;95421.59;5050627;28;20208;-79
2022/11/01 08:52:05;;;;;;;12.20;6.63;;;;;;;17.17;59.37;95421.50;5050451;28;20219;-80
2022/11/01 08:54:33;;;;;;;12.57;7.95;;;;;;;17.40;58.43;95420.56;5051004;28;20221;-80
2022/11/01 08:57:01;;;;;;;13.73;7.25;;;;;;;17.51;58.10;95415.34;5051683;28;20203;-78
2022/11/01 08:59:28;;;;;;;15.40;7.15;;;;;;;17.55;58.03;95421.72;5051433;28;20295;-76
2022/11/01 09:01:55;;;;;;;14.98;9.98;;;;;;;17.29;57.90;95413.22;5051487;28;20207;-77
2022/11/01 09:04:23;;;;;;;16.92;9.27;;;;;;;17.14;58.72;95416.72;5051580;28;20203;-79
2022/11/01 09:06:49;;;;;;;21.48;10.85;;;;;;;17.27;58.46;95404.53;5051322;28;20215;-79
2022/11/01 09:09:16;;;;;;;17.55;7.40;;;;;;;17.41;58.21;95408.47;5051276;28;20231;-78
2022/11/01 09:11:43;;;;;;;11.70;6.72;;;;;;;17.37;58.02;95409.50;5051222;28;20208;-83
2022/11/01 09:14:11;;;;;;;13.05;7.30;;;;;;;17.31;58.44;95399.97;5051240;28;20207;-81
2022/11/01 09:16:38;;;;;;;21.55;11.10;;;;;;;17.41;57.77;95399.44;5051062;28;20614;-79
2022/11/01 09:19:05;;;;;;;20.90;8.98;;;;;;;17.59;57.29;95406.19;5051558;28;20207;-82
2022/11/01 09:21:31;;;;;;;17.10;8.18;;;;;;;17.79;56.57;95396.13;5051423;28;20204;-82
2022/11/01 09:23:58;;;;;;;15.05;6.72;;;;;;;17.74;56.52;95402.69;5051073;28;20682;-75
2022/11/01 09:26:27;;;;;;;13.55;6.50;;;;;;;17.77;56.25;95403.91;5047869;28;20235;-77
2022/11/01 09:28:54;;;;;;;14.13;6.93;;;;;;;17.89;56.28;95398.34;5056958;28;20321;-77
2022/11/01 09:31:22;;;;;;;12.35;5.95;;;;;;;17.91;56.10;95393.28;5057365;28;20210;-81
2022/11/01 09:33:49;;;;;;;14.82;6.40;;;;;;;17.96;55.77;95393.03;5050498;28;20637;-78
2022/11/01 09:36:16;;;;;;;16.95;7.05;;;;;;;18.23;55.30;95395.97;5050357;28;20207;-76
2022/11/01 09:38:43;;;;;;;17.65;9.00;;;;;;;18.28;55.16;95388.28;5049611;28;20199;-79
2022/11/01 09:41:16;;;;;;;16.85;8.90;;;;;;;18.47;55.10;95379.25;5050367;28;20207;-75
2022/11/01 09:43:45;;;;;;;14.40;8.60;;;;;;;18.63;54.46;95376.50;5050526;28;20188;-76
2022/11/01 09:46:16;;;;;;;12.48;8.30;;;;;;;18.68;53.46;95378.97;5049768;28;20670;-78
2022/11/01 09:48:46;;;;;;;18.10;9.02;;;;;;;18.34;54.38;95370.38;5039754;28;20259;-78
2022/11/01 09:51:20;;;;;;;13.60;8.52;;;;;;;18.55;54.11;95364.56;5045308;28;20195;-75
2022/11/01 09:53:49;;;;;;;15.00;8.68;;;;;;;18.74;53.48;95361.03;5048132;28;20202;-77
2022/11/01 09:56:21;;;;;;;16.35;8.95;;;;;;;18.92;52.99;95356.69;5046041;28;20200;-75
2022/11/01 09:58:57;;;;;;;17.75;9.00;;;;;;;19.15;52.45;95363.03;5049653;28;20207;-76
2022/11/01 10:01:38;;;;;;;17.63;9.57;;;;;;;19.30;52.38;95355.84;5049536;28;20253;-78
2022/11/01 10:04:44;;;;;;;17.15;9.55;;;;;;;19.55;51.49;95345.31;5048805;28;20249;-77
2022/11/01 10:07:19;;;;;;;17.75;8.00;;;;;;;19.45;52.00;95346.69;5050694;28;20578;-78
2022/11/01 10:09:54;;;;;;;14.32;8.63;;;;;;;19.55;52.34;95342.56;5059196;28;20241;-78
2022/11/01 10:12:35;;;;;;;16.63;8.63;;;;;;;19.64;51.54;95343.13;5049133;28;20195;-78
2022/11/01 10:15:19;;;;;;;16.23;8.60;;;;;;;19.62;51.64;95345.44;5048198;28;20586;-77
2022/11/01 10:17:49;;;;;;;13.68;8.50;;;;;;;19.73;51.70;95334.59;5048225;28;20207;-78
2022/11/01 10:20:20;;;;;;;18.50;8.63;;;;;;;19.88;51.13;95339.97;5049061;28;20215;-80
2022/11/01 10:22:49;;;;;;;13.68;8.50;;;;;;;20.05;50.74;95337.84;5049356;28;20287;-79
2022/11/01 10:25:21;;;;;;;18.85;8.60;;;;;;;19.85;50.95;95324.19;5049015;28;20202;-79
2022/11/01 10:27:57;;;;;;;17.75;8.18;;;;;;;20.07;50.99;95322.56;5049529;28;20230;-79
2022/11/01 10:30:24;;;;;;;15.80;8.43;;;;;;;20.40;49.70;95321.06;5049330;28;20210;-79
2022/11/01 10:32:56;;;;;;;15.35;7.97;;;;;;;20.44;49.27;95319.97;5049135;28;20653;-78
2022/11/01 10:35:29;;;;;;;20.38;8.88;;;;;;;20.69;49.77;95308.44;5036660;28;20286;-78
2022/11/01 10:38:02;;;;;;;14.57;8.23;;;;;;;20.80;48.86;95307.41;5049156;28;20200;-79
2022/11/01 10:40:36;;;;;;;10.55;7.70;;;;;;;21.04;47.76;95308.88;5049964;28;20222;-78
2022/11/01 10:43:17;;;;;;;13.95;8.45;;;;;;;21.03;47.88;95303.72;5049472;28;20742;-78
2022/11/01 10:45:47;;;;;;;13.85;7.97;;;;;;;21.06;48.35;95306.50;5049248;28;20211;-78
2022/11/01 10:48:29;;;;;;;24.10;7.93;;;;;;;21.21;47.16;95301.97;5048720;28;20254;-79
2022/11/01 10:50:59;;;;;;;17.33;7.90;;;;;;;21.17;47.42;95293.66;5049566;28;20542;-77
2022/11/01 10:53:33;;;;;;;11.60;7.25;;;;;;;21.23;47.71;95294.91;5048873;28;20203;-79
2022/11/01 10:56:04;;;;;;;17.00;8.43;;;;;;;20.98;47.76;95288.31;5051064;28;20210;-79
2022/11/01 10:58:38;;;;;;;16.63;8.55;;;;;;;20.68;48.52;95290.34;5056810;28;20191;-78
2022/11/01 11:01:09;;;;;;;12.77;8.10;;;;;;;20.72;48.43;95293.94;5049366;28;20257;-79
2022/11/01 11:03:39;;;;;;;14.23;8.02;;;;;;;20.77;48.49;95288.09;5052212;28;20223;-79
2022/11/01 11:06:12;;;;;;;14.85;8.43;;;;;;;20.71;48.14;95281.34;5059863;28;20203;-78
2022/11/01 11:08:41;;;;;;;13.50;8.60;;;;;;;20.87;48.01;95281.91;5072530;28;20227;-79
2022/11/01 11:11:13;;;;;;;15.40;7.05;;;;;;;21.10;47.35;95279.00;5072647;28;20206;-78
2022/11/01 11:13:42;;;;;;;14.30;7.97;;;;;;;21.12;46.94;95274.69;5057964;28;20253;-77
2022/11/01 11:16:18;;;;;;;16.35;7.95;;;;;;;21.24;46.80;95271.69;5052895;28;20277;-80
2022/11/01 11:19:14;;;;;;;12.65;7.15;;;;;;;21.14;47.62;95279.84;5052519;28;20662;-78
2022/11/01 11:21:43;;;;;;;14.27;7.95;;;;;;;20.96;47.50;95270.59;5053023;28;20651;-77
2022/11/01 11:24:18;;;;;;;11.20;6.97;;;;;;;20.97;47.68;95272.97;5052436;28;20249;-79
2022/11/01 11:26:47;;;;;;;13.50;8.00;;;;;;;21.12;47.64;95260.91;5052475;28;20834;-78
2022/11/01 11:29:35;;;;;;;14.35;7.15;;;;;;;21.17;47.05;95263.34;5052820;28;20269;-79
2022/11/01 11:32:20;;;;;;;13.68;7.47;;;;;;;21.38;47.08;95256.44;5052469;28;20215;-79
2022/11/01 11:34:53;;;;;;;13.90;6.75;;;;;;;21.67;46.35;95261.00;5052996;28;20200;-78
2022/11/01 11:37:24;;;;;;;12.07;6.25;;;;;;;21.76;46.30;95261.47;5052848;28;20553;-78
2022/11/01 11:40:19;;;;;;;9.82;6.32;;;;;;;21.72;45.55;95257.91;5052465;28;20215;-77
2022/11/01 11:42:52;;;;;;;12.38;7.18;;;;;;;21.36;46.52;95256.81;5052805;28;20200;-79
2022/11/01 11:45:28;;;;;;;14.32;7.00;;;;;;;21.56;46.23;95257.38;5052976;28;20244;-78
2022/11/01 11:47:56;;;;;;;10.55;6.43;;;;;;;21.74;45.95;95252.78;5052140;28;20204;-78
2022/11/01 11:50:33;;;;;;;16.40;7.20;;;;;;;22.02;45.48;95252.19;5051568;28;20797;-78